Time;durP1;ratioP1;P1;durP2;ratioP2;P2;SDS_P1;SDS_P2;PMS_P1;PMS_P2;Temp;Humidity;BMP_temperature;BMP_pressure;BME280_temperature;BME280_humidity;BME280_pressure;Samples;Min_cycle;Max_cycle;Signal;HPM_P1;HPM_P2
2023/07/16 00:00:00;;;;;;;5.50;4.40;;;;;;;22.32;60.93;96577.35;107964;1280;22620;-77
2023/07/16 00:02:31;;;;;;;4.30;3.70;;;;;;;22.35;60.84;96579.11;107899;1282;22537;-77
2023/07/16 00:05:03;;;;;;;5.50;4.20;;;;;;;22.37;60.86;96572.42;107946;1282;22524;-77
2023/07/16 00:07:34;;;;;;;5.50;4.70;;;;;;;22.36;60.81;96575.56;107948;1282;25337;-77
2023/07/16 00:10:07;;;;;;;4.80;4.00;;;;;;;22.36;60.70;96578.11;108093;1282;25315;-77
2023/07/16 00:12:41;;;;;;;6.00;4.30;;;;;;;22.36;60.66;96573.42;108066;1282;22541;-77
2023/07/16 00:15:15;;;;;;;5.30;4.00;;;;;;;22.36;60.71;96569.02;108102;1280;24225;-77
2023/07/16 00:17:47;;;;;;;4.50;4.10;;;;;;;22.36;60.68;96570.40;108114;1281;22667;-77
2023/07/16 00:20:18;;;;;;;4.20;3.80;;;;;;;22.34;60.46;96566.27;108106;1282;22534;-77
2023/07/16 00:22:49;;;;;;;6.10;4.00;;;;;;;22.31;60.48;96565.45;108065;1282;22554;-77
2023/07/16 00:25:23;;;;;;;5.40;4.10;;;;;;;22.29;60.61;96563.86;108096;1279;24225;-77
2023/07/16 00:27:57;;;;;;;4.00;3.60;;;;;;;22.26;60.56;96562.81;108111;1282;23084;-77
2023/07/16 00:30:31;;;;;;;4.70;4.20;;;;;;;22.23;60.49;96563.91;108058;1274;22518;-77
2023/07/16 00:33:02;;;;;;;4.80;4.00;;;;;;;22.21;60.64;96565.86;108095;1274;22537;-77
2023/07/16 00:35:34;;;;;;;5.10;4.00;;;;;;;22.21;60.71;96564.16;108096;1282;22543;-77
2023/07/16 00:38:10;;;;;;;4.60;4.20;;;;;;;22.26;60.76;96559.02;108075;1282;22536;-77
2023/07/16 00:40:44;;;;;;;5.40;4.40;;;;;;;22.33;60.67;96556.85;108087;1274;23371;-77
2023/07/16 00:43:17;;;;;;;5.20;3.90;;;;;;;22.39;60.68;96557.13;108113;1282;22534;-77
2023/07/16 00:45:50;;;;;;;4.90;3.90;;;;;;;22.42;60.46;96553.80;108106;1282;22553;-77
2023/07/16 00:48:23;;;;;;;5.90;4.20;;;;;;;22.44;60.43;96551.91;108094;1282;22533;-77
2023/07/16 00:50:55;;;;;;;4.40;3.70;;;;;;;22.42;60.35;96553.80;108095;1274;24323;-77
2023/07/16 00:53:27;;;;;;;6.20;4.10;;;;;;;22.40;60.38;96551.45;108104;1282;24245;-77
2023/07/16 00:56:00;;;;;;;5.80;3.90;;;;;;;22.39;60.30;96551.49;108045;1282;22726;-77
2023/07/16 00:58:33;;;;;;;5.80;4.10;;;;;;;22.37;60.34;96548.97;108149;1279;24217;-77
2023/07/16 01:01:10;;;;;;;5.90;4.40;;;;;;;22.35;60.30;96544.23;108089;1282;25260;-77
2023/07/16 01:03:44;;;;;;;4.40;4.00;;;;;;;22.34;60.41;96538.96;108054;1282;22996;-78
2023/07/16 01:06:23;;;;;;;4.70;3.60;;;;;;;22.36;60.41;96532.66;108099;1282;22623;-77
2023/07/16 01:08:59;;;;;;;5.40;4.00;;;;;;;22.37;60.41;96525.20;108100;1282;22484;-77
2023/07/16 01:11:31;;;;;;;5.10;3.70;;;;;;;22.37;60.42;96527.38;108010;1274;24833;-77
2023/07/16 01:14:03;;;;;;;3.90;3.50;;;;;;;22.45;60.41;96525.05;108182;1275;22538;-77
2023/07/16 01:16:35;;;;;;;5.20;3.90;;;;;;;22.54;60.31;96526.23;108081;1274;22580;-77
2023/07/16 01:19:08;;;;;;;4.60;3.80;;;;;;;22.60;60.26;96529.04;108081;1274;22566;-77
2023/07/16 01:21:48;;;;;;;6.10;3.90;;;;;;;22.60;60.14;96519.46;108032;1274;60443;-76
2023/07/16 01:24:43;;;;;;;4.60;3.80;;;;;;;22.59;60.20;96514.74;108087;1282;22550;-77
2023/07/16 01:27:44;;;;;;;6.20;3.60;;;;;;;22.58;60.08;96513.48;108100;1273;22535;-77
2023/07/16 01:30:27;;;;;;;4.70;3.80;;;;;;;22.57;59.94;96510.77;108059;1282;22553;-77
2023/07/16 01:33:00;;;;;;;4.30;3.70;;;;;;;22.56;59.95;96508.59;108038;1282;22528;-78
2023/07/16 01:35:31;;;;;;;4.50;4.10;;;;;;;22.56;59.98;96517.02;108060;1274;25572;-77
2023/07/16 01:38:03;;;;;;;4.20;3.80;;;;;;;22.56;59.81;96511.13;108103;1282;22556;-77
2023/07/16 01:40:35;;;;;;;5.50;4.20;;;;;;;22.54;59.85;96509.64;108096;1280;22530;-78
2023/07/16 01:43:08;;;;;;;5.90;4.10;;;;;;;22.50;59.88;96509.23;108076;1282;22564;-77
2023/07/16 01:45:41;;;;;;;5.30;4.00;;;;;;;22.44;60.00;96505.13;108101;1274;22952;-77
2023/07/16 01:48:30;;;;;;;4.60;4.20;;;;;;;22.42;59.96;96506.02;108063;1259;24568;-78
2023/07/16 01:51:01;;;;;;;5.50;4.30;;;;;;;22.39;60.02;96505.02;108058;1274;24285;-78
2023/07/16 01:53:35;;;;;;;5.30;4.10;;;;;;;22.34;60.09;96502.23;108002;1282;22527;-77
2023/07/16 01:56:07;;;;;;;5.10;4.30;;;;;;;22.31;59.99;96496.92;108078;1279;22531;-77
2023/07/16 01:58:38;;;;;;;7.40;4.10;;;;;;;22.27;60.04;96494.08;108108;1270;22544;-78
2023/07/16 02:01:12;;;;;;;6.20;4.50;;;;;;;22.22;60.07;96492.13;108060;1282;22528;-78
2023/07/16 02:03:43;;;;;;;4.50;4.00;;;;;;;22.19;60.24;96497.77;108070;1274;22605;-78
2023/07/16 02:06:15;;;;;;;7.40;4.00;;;;;;;22.16;60.36;96490.40;108122;1282;23277;-78
2023/07/16 02:08:46;;;;;;;5.00;4.50;;;;;;;22.14;60.25;96490.11;108063;1282;22547;-78
2023/07/16 02:11:17;;;;;;;4.50;3.80;;;;;;;22.10;60.40;96489.11;108071;1274;22552;-78
2023/07/16 02:13:51;;;;;;;4.50;4.00;;;;;;;22.07;60.62;96482.94;108088;1282;22558;-78
2023/07/16 02:16:24;;;;;;;4.90;4.40;;;;;;;22.04;60.50;96482.55;108083;1280;24404;-78
2023/07/16 02:18:58;;;;;;;5.90;4.00;;;;;;;22.02;60.60;96483.36;108084;1278;22613;-78
2023/07/16 02:21:29;;;;;;;6.10;3.80;;;;;;;22.01;60.67;96486.66;108047;1275;23213;-79
2023/07/16 02:24:00;;;;;;;5.70;4.20;;;;;;;22.00;60.64;96485.86;108071;1282;23037;-78
2023/07/16 02:26:31;;;;;;;4.60;3.70;;;;;;;21.96;60.76;96484.47;108071;1282;23008;-79
2023/07/16 02:29:03;;;;;;;5.40;4.10;;;;;;;21.92;60.65;96486.00;108058;1282;22541;-78
2023/07/16 02:31:37;;;;;;;5.70;4.10;;;;;;;21.89;60.84;96486.58;108083;1279;22535;-78
2023/07/16 02:34:08;;;;;;;6.00;3.80;;;;;;;21.88;60.94;96486.23;107991;1282;22544;-78
2023/07/16 02:36:41;;;;;;;6.00;4.00;;;;;;;21.86;60.93;96487.27;107978;1282;22528;-78
2023/07/16 02:39:12;;;;;;;4.20;3.80;;;;;;;21.82;61.09;96490.66;107944;1282;24706;-78
2023/07/16 02:41:43;;;;;;;4.80;3.70;;;;;;;21.72;61.33;96492.16;107953;1281;22536;-77
2023/07/16 02:44:14;;;;;;;4.40;4.00;;;;;;;21.62;61.48;96493.70;107947;1277;22559;-78
2023/07/16 02:46:45;;;;;;;5.40;4.00;;;;;;;21.52;61.60;96494.77;107952;1282;22580;-79
2023/07/16 02:49:16;;;;;;;5.30;4.00;;;;;;;21.43;61.90;96492.80;107959;1282;22548;-78
2023/07/16 02:51:48;;;;;;;4.90;4.00;;;;;;;21.28;61.95;96489.01;107921;1275;24300;-78
2023/07/16 02:54:19;;;;;;;4.30;3.60;;;;;;;21.13;62.22;96492.39;107990;1282;22556;-78
2023/07/16 02:56:53;;;;;;;3.70;3.40;;;;;;;21.01;62.52;96492.41;107963;1280;22522;-78
2023/07/16 02:59:25;;;;;;;4.50;3.90;;;;;;;20.93;62.89;96491.07;107948;1282;22548;-78
2023/07/16 03:01:56;;;;;;;5.10;4.10;;;;;;;20.85;62.92;96491.27;107955;1281;22539;-78
2023/07/16 03:04:27;;;;;;;5.50;4.00;;;;;;;20.81;63.16;96488.45;107913;1275;22575;-78
2023/07/16 03:06:58;;;;;;;4.70;3.90;;;;;;;20.79;63.26;96498.23;107942;1277;22556;-78
2023/07/16 03:09:30;;;;;;;4.20;3.80;;;;;;;20.76;63.44;96498.73;107943;1282;22547;-78
2023/07/16 03:12:01;;;;;;;4.40;3.70;;;;;;;20.72;63.60;96497.09;107890;1282;25676;-78
2023/07/16 03:14:32;;;;;;;4.50;4.00;;;;;;;20.69;63.92;96497.31;107945;1282;22664;-78
2023/07/16 03:17:03;;;;;;;6.20;4.00;;;;;;;20.66;63.89;96496.22;107961;1282;25485;-79
2023/07/16 03:19:37;;;;;;;7.80;4.40;;;;;;;20.66;64.04;96496.62;107915;1275;24152;-78
2023/07/16 03:22:08;;;;;;;7.20;4.20;;;;;;;20.66;64.07;96497.08;107900;1274;22538;-78
2023/07/16 03:24:39;;;;;;;6.10;4.20;;;;;;;20.62;64.39;96504.60;107949;1282;23242;-78
2023/07/16 03:27:10;;;;;;;5.00;4.50;;;;;;;20.61;64.28;96505.41;107946;1282;22588;-78
2023/07/16 03:29:41;;;;;;;5.70;4.60;;;;;;;20.65;64.37;96509.52;107922;1270;22522;-78
2023/07/16 03:32:12;;;;;;;5.30;4.50;;;;;;;20.69;64.29;96511.25;107934;1282;24440;-78
2023/07/16 03:34:43;;;;;;;5.30;4.40;;;;;;;20.74;64.11;96506.23;107974;1282;22661;-79
2023/07/16 03:37:17;;;;;;;6.20;3.80;;;;;;;20.78;64.19;96504.55;107938;1282;24235;-78
2023/07/16 03:39:48;;;;;;;5.10;4.10;;;;;;;20.82;64.11;96505.09;107949;1282;22556;-78
2023/07/16 03:42:19;;;;;;;7.40;4.40;;;;;;;20.85;64.02;96502.88;107924;1282;25111;-78
2023/07/16 03:44:50;;;;;;;5.80;4.20;;;;;;;20.88;64.08;96505.80;107985;1282;22516;-78
2023/07/16 03:47:21;;;;;;;6.60;4.40;;;;;;;20.90;64.01;96500.92;107968;1282;22550;-79
2023/07/16 03:49:52;;;;;;;5.40;4.10;;;;;;;20.92;63.93;96503.20;107946;1282;24260;-79
2023/07/16 03:52:24;;;;;;;5.00;4.50;;;;;;;20.95;63.89;96500.42;107944;1280;22973;-78
2023/07/16 03:54:55;;;;;;;6.70;4.60;;;;;;;20.97;64.05;96501.55;107953;1282;22638;-79
2023/07/16 03:57:27;;;;;;;5.30;4.40;;;;;;;20.98;64.18;96503.51;107952;1277;22544;-79
2023/07/16 03:59:58;;;;;;;5.40;4.00;;;;;;;21.00;64.02;96509.02;108064;1275;22573;-79
2023/07/16 04:02:30;;;;;;;4.40;4.00;;;;;;;21.01;64.10;96506.14;107959;1276;22527;-79
2023/07/16 04:05:01;;;;;;;5.70;4.50;;;;;;;21.02;64.17;96504.31;107929;1282;22561;-79
2023/07/16 04:07:33;;;;;;;4.90;4.30;;;;;;;21.04;64.18;96503.05;107964;1282;25377;-79
2023/07/16 04:10:04;;;;;;;4.90;4.00;;;;;;;21.09;64.04;96506.00;107984;1278;25305;-79
2023/07/16 04:12:35;;;;;;;4.60;4.20;;;;;;;21.13;64.14;96506.73;107921;1282;23917;-79
2023/07/16 04:15:11;;;;;;;5.60;4.40;;;;;;;21.15;64.00;96509.56;107945;1274;22636;-79
2023/07/16 04:17:42;;;;;;;4.40;4.00;;;;;;;21.19;64.08;96509.34;107972;1282;22527;-79
2023/07/16 04:20:14;;;;;;;7.00;4.10;;;;;;;21.24;64.04;96507.98;107953;1282;25305;-79
2023/07/16 04:22:45;;;;;;;5.70;4.30;;;;;;;21.29;63.88;96508.52;107926;1282;22534;-79
2023/07/16 04:25:16;;;;;;;5.10;4.10;;;;;;;21.38;63.65;96507.17;107991;1282;22525;-80
2023/07/16 04:27:50;;;;;;;6.90;4.80;;;;;;;21.46;63.59;96509.83;107960;1274;22551;-79
2023/07/16 04:30:21;;;;;;;5.80;4.60;;;;;;;21.54;63.61;96506.31;107974;1274;22524;-79
2023/07/16 04:32:52;;;;;;;5.80;3.90;;;;;;;21.60;63.35;96508.38;107942;1282;22543;-79
2023/07/16 04:35:23;;;;;;;4.90;4.30;;;;;;;21.65;63.19;96509.48;107956;1277;22619;-79
2023/07/16 04:37:55;;;;;;;4.40;3.90;;;;;;;21.70;63.35;96513.33;107952;1282;22542;-79
2023/07/16 04:40:26;;;;;;;4.70;4.10;;;;;;;21.76;63.15;96514.83;107941;1282;22552;-79
2023/07/16 04:43:00;;;;;;;4.90;4.20;;;;;;;21.79;63.11;96515.73;107912;1282;22546;-79
2023/07/16 04:45:31;;;;;;;5.70;4.40;;;;;;;21.86;62.94;96522.36;107820;1282;166044;-79
2023/07/16 04:48:02;;;;;;;5.90;4.40;;;;;;;21.90;62.59;96525.30;107979;1282;24218;-79
2023/07/16 04:50:36;;;;;;;5.00;4.50;;;;;;;21.95;62.63;96526.02;107952;1277;22560;-80
2023/07/16 04:53:08;;;;;;;5.50;4.50;;;;;;;22.01;62.58;96531.86;107936;1282;22554;-79
2023/07/16 04:55:40;;;;;;;5.70;4.40;;;;;;;22.06;62.60;96538.39;107936;1277;22536;-79
2023/07/16 04:58:12;;;;;;;5.30;4.30;;;;;;;22.11;62.54;96537.64;107931;1282;23374;-79
2023/07/16 05:00:44;;;;;;;4.80;4.10;;;;;;;22.15;62.35;96538.35;107967;1278;22553;-79
2023/07/16 05:03:18;;;;;;;4.60;4.20;;;;;;;22.19;62.52;96540.59;107916;1282;22591;-80
2023/07/16 05:05:50;;;;;;;7.40;4.40;;;;;;;22.29;62.40;96544.81;107967;1282;22523;-79
2023/07/16 05:08:23;;;;;;;7.80;4.10;;;;;;;22.40;62.42;96546.50;107955;1282;22564;-79
2023/07/16 05:10:56;;;;;;;5.30;4.50;;;;;;;22.54;62.37;96544.53;107936;1282;25352;-79
2023/07/16 05:13:31;;;;;;;5.40;4.30;;;;;;;22.73;62.78;96549.59;107907;1274;22532;-79
2023/07/16 05:16:04;;;;;;;4.70;3.80;;;;;;;23.26;63.71;96552.09;107928;1280;25292;-79
2023/07/16 05:18:36;;;;;;;6.00;4.10;;;;;;;24.76;64.41;96556.06;107943;1282;22551;-79
2023/07/16 05:21:07;;;;;;;4.90;4.20;;;;;;;26.57;62.37;96557.55;107900;1282;22519;-79
2023/07/16 05:23:38;;;;;;;3.80;3.50;;;;;;;27.98;59.46;96559.98;107919;1279;22530;-79
2023/07/16 05:26:14;;;;;;;5.70;3.90;;;;;;;28.99;57.33;96560.15;107953;1281;22527;-79
2023/07/16 05:28:46;;;;;;;5.10;3.70;;;;;;;29.95;55.49;96569.10;107939;1274;22524;-79
2023/07/16 05:31:17;;;;;;;4.20;3.80;;;;;;;30.51;52.84;96567.58;107949;1275;24280;-79
2023/07/16 05:33:49;;;;;;;4.90;3.80;;;;;;;30.88;51.48;96566.49;107945;1282;23442;-79
2023/07/16 05:36:20;;;;;;;4.40;3.80;;;;;;;31.23;49.91;96567.72;107928;1282;25321;-79
2023/07/16 05:38:54;;;;;;;4.50;3.60;;;;;;;31.24;48.62;96569.74;108013;1274;22567;-79
2023/07/16 05:41:25;;;;;;;6.80;3.60;;;;;;;30.94;47.69;96569.21;108111;1273;22557;-82
2023/07/16 05:43:57;;;;;;;4.30;3.20;;;;;;;30.63;47.05;96568.14;108034;1282;42315;-84
2023/07/16 05:46:29;;;;;;;4.60;3.80;;;;;;;30.65;47.07;96567.58;107976;1274;22552;-84
2023/07/16 05:49:01;;;;;;;3.80;3.30;;;;;;;30.70;46.59;96562.13;107958;1282;24219;-83
2023/07/16 05:51:32;;;;;;;4.80;3.30;;;;;;;30.62;46.34;96563.30;107955;1282;25542;-84
2023/07/16 05:54:04;;;;;;;3.40;3.00;;;;;;;30.76;46.33;96566.89;107956;1282;25236;-84
2023/07/16 05:56:35;;;;;;;3.50;3.20;;;;;;;30.90;45.83;96568.11;107929;1274;25281;-83
2023/07/16 05:59:07;;;;;;;4.20;3.50;;;;;;;30.94;45.75;96574.70;107945;1274;22573;-82
2023/07/16 06:01:40;;;;;;;4.10;3.40;;;;;;;31.20;45.60;96579.83;108040;1282;24472;-79
2023/07/16 06:04:14;;;;;;;4.10;3.20;;;;;;;31.43;45.86;96582.46;108048;1282;25326;-79
2023/07/16 06:06:46;;;;;;;3.80;3.30;;;;;;;31.60;45.04;96578.88;108046;1282;22534;-79
2023/07/16 06:09:18;;;;;;;4.60;3.70;;;;;;;31.46;44.24;96584.61;108056;1274;22591;-83
2023/07/16 06:11:53;;;;;;;4.00;3.60;;;;;;;31.55;44.58;96581.17;108065;1281;22663;-82
2023/07/16 06:14:24;;;;;;;4.50;3.40;;;;;;;31.77;44.20;96582.54;108093;1279;22704;-82
2023/07/16 06:16:56;;;;;;;4.80;3.40;;;;;;;31.99;43.90;96580.66;108059;1282;25436;-82
2023/07/16 06:19:27;;;;;;;4.30;3.30;;;;;;;32.34;43.79;96580.82;108081;1274;26612;-82
2023/07/16 06:22:04;;;;;;;3.70;3.20;;;;;;;32.62;43.38;96584.74;108014;1281;22531;-83
2023/07/16 06:24:36;;;;;;;5.60;3.90;;;;;;;32.75;43.15;96582.58;108101;1280;22533;-83
2023/07/16 06:27:08;;;;;;;5.20;3.70;;;;;;;32.94;43.12;96581.89;108071;1273;22534;-82
2023/07/16 06:29:39;;;;;;;5.10;3.70;;;;;;;33.09;42.62;96581.95;108148;1282;22586;-83
2023/07/16 06:32:12;;;;;;;3.80;3.40;;;;;;;33.13;42.52;96584.14;107975;1282;25274;-83
2023/07/16 06:34:43;;;;;;;3.90;3.50;;;;;;;33.26;42.70;96585.80;107982;1282;24362;-83
2023/07/16 06:37:14;;;;;;;6.30;4.10;;;;;;;33.31;42.06;96588.66;107964;1274;22611;-78
2023/07/16 06:39:46;;;;;;;3.90;3.50;;;;;;;33.33;41.64;96587.52;107910;1282;22632;-82
2023/07/16 06:42:17;;;;;;;4.80;3.70;;;;;;;33.34;41.50;96592.45;107866;1274;26577;-79
2023/07/16 06:44:51;;;;;;;5.70;3.40;;;;;;;33.39;41.55;96589.52;107815;1274;22703;-80
2023/07/16 06:47:26;;;;;;;5.50;3.60;;;;;;;33.45;41.41;96587.98;107815;1282;22669;-79
2023/07/16 06:50:00;;;;;;;5.10;3.70;;;;;;;33.32;41.21;96586.14;108032;1282;22612;-79
2023/07/16 06:52:31;;;;;;;5.20;3.60;;;;;;;33.25;41.10;96589.05;107915;1274;23074;-79
2023/07/16 06:55:03;;;;;;;4.20;3.30;;;;;;;33.18;41.06;96589.28;107969;1277;22626;-79
2023/07/16 06:57:36;;;;;;;5.00;3.30;;;;;;;33.14;41.34;96591.87;108073;1282;25504;-77
2023/07/16 07:00:11;;;;;;;4.00;3.30;;;;;;;33.02;41.26;96595.98;108054;1282;24294;-76
2023/07/16 07:02:42;;;;;;;4.20;3.40;;;;;;;33.13;41.29;96601.16;108082;1282;24083;-77
2023/07/16 07:05:14;;;;;;;4.30;3.50;;;;;;;33.21;41.06;96601.98;108067;1282;23008;-77
2023/07/16 07:07:46;;;;;;;6.60;3.60;;;;;;;33.30;41.24;96597.32;108066;1282;22572;-77
2023/07/16 07:10:17;;;;;;;5.40;3.50;;;;;;;33.28;41.22;96597.28;108087;1282;22554;-76
2023/07/16 07:12:49;;;;;;;6.10;3.90;;;;;;;33.25;41.15;96595.02;108038;1282;22530;-76
2023/07/16 07:15:24;;;;;;;6.20;3.10;;;;;;;33.19;41.11;96605.11;108090;1282;22554;-77
2023/07/16 07:17:55;;;;;;;4.30;3.40;;;;;;;33.28;41.60;96606.09;107964;1282;24238;-77
2023/07/16 07:20:26;;;;;;;5.30;3.90;;;;;;;33.37;41.00;96607.09;107960;1277;23289;-77
2023/07/16 07:22:58;;;;;;;4.40;3.60;;;;;;;33.40;41.10;96607.41;108058;1282;22527;-77
2023/07/16 07:25:30;;;;;;;4.30;3.40;;;;;;;33.46;40.93;96607.56;108041;1279;22550;-77
2023/07/16 07:28:02;;;;;;;4.10;3.50;;;;;;;33.50;41.13;96608.27;108058;1282;22559;-76
2023/07/16 07:30:34;;;;;;;3.80;3.40;;;;;;;33.65;40.89;96611.84;108042;1277;22572;-76
2023/07/16 07:33:08;;;;;;;4.80;3.70;;;;;;;33.66;40.51;96607.81;108094;1282;22678;-76
2023/07/16 07:35:40;;;;;;;4.40;3.60;;;;;;;33.65;40.86;96608.31;108067;1282;22545;-76
2023/07/16 07:38:14;;;;;;;3.90;3.60;;;;;;;33.60;40.62;96602.77;107686;1276;22549;-76
2023/07/16 07:40:48;;;;;;;5.60;3.50;;;;;;;33.56;40.65;96600.75;107900;1275;22545;-76
2023/07/16 07:43:20;;;;;;;4.60;3.60;;;;;;;33.67;40.83;96598.20;107962;1275;22538;-77
2023/07/16 07:45:51;;;;;;;4.10;3.00;;;;;;;33.73;40.63;96602.06;107903;1280;22543;-76
2023/07/16 07:48:23;;;;;;;5.30;3.10;;;;;;;33.77;40.31;96606.27;107943;1279;22616;-76
2023/07/16 07:50:55;;;;;;;6.10;4.10;;;;;;;33.79;40.02;96609.08;107874;1277;22530;-76
2023/07/16 07:53:30;;;;;;;5.80;3.30;;;;;;;33.92;40.44;96612.94;107890;1275;23107;-77
2023/07/16 07:56:02;;;;;;;8.50;3.80;;;;;;;34.12;40.60;96614.46;108015;1282;25316;-77
2023/07/16 07:58:33;;;;;;;3.80;3.40;;;;;;;34.13;40.47;96615.60;107960;1280;23825;-76
2023/07/16 08:01:08;;;;;;;3.90;3.60;;;;;;;34.09;40.08;96618.52;107963;1281;22519;-77
2023/07/16 08:03:40;;;;;;;3.40;3.10;;;;;;;33.95;39.91;96617.89;107998;1280;22572;-76
2023/07/16 08:06:12;;;;;;;3.70;3.30;;;;;;;33.68;40.18;96619.71;107950;1280;22528;-77
2023/07/16 08:08:43;;;;;;;4.30;3.20;;;;;;;33.67;41.01;96625.78;107959;1275;22623;-76
2023/07/16 08:11:15;;;;;;;6.10;3.60;;;;;;;33.64;40.42;96622.70;107927;1277;22589;-76
2023/07/16 08:13:46;;;;;;;4.60;3.30;;;;;;;33.64;40.71;96626.53;107929;1275;22543;-76
2023/07/16 08:16:20;;;;;;;4.20;3.70;;;;;;;33.64;40.46;96628.67;107939;1282;22611;-76
2023/07/16 08:18:51;;;;;;;3.70;3.40;;;;;;;33.55;40.85;96632.02;107942;1282;22541;-76
2023/07/16 08:21:22;;;;;;;5.20;3.30;;;;;;;33.60;40.80;96636.30;107911;1282;23416;-76
2023/07/16 08:23:55;;;;;;;3.50;3.20;;;;;;;33.67;41.03;96643.30;107983;1282;22545;-77
2023/07/16 08:26:26;;;;;;;4.10;3.70;;;;;;;33.84;41.16;96647.29;107908;1277;23605;-76
2023/07/16 08:29:01;;;;;;;3.90;3.30;;;;;;;33.87;40.58;96648.25;107862;1282;22517;-76
2023/07/16 08:31:32;;;;;;;7.70;3.50;;;;;;;33.89;40.30;96649.99;107854;1282;22640;-75
2023/07/16 08:34:03;;;;;;;4.80;3.80;;;;;;;34.08;40.81;96660.86;107943;1282;22534;-76
2023/07/16 08:36:35;;;;;;;3.80;2.80;;;;;;;34.35;40.49;96659.40;107993;1281;22593;-76
2023/07/16 08:39:08;;;;;;;5.30;3.40;;;;;;;34.26;38.96;96660.78;107952;1282;22534;-77
2023/07/16 08:41:40;;;;;;;3.40;3.10;;;;;;;34.24;39.24;96666.36;108041;1282;22543;-76
2023/07/16 08:44:12;;;;;;;3.70;3.20;;;;;;;33.95;37.94;96665.41;107994;1280;22539;-77
2023/07/16 08:46:43;;;;;;;3.30;3.00;;;;;;;33.39;37.83;96666.94;107976;1282;24256;-76
2023/07/16 08:49:18;;;;;;;3.40;3.00;;;;;;;33.02;38.27;96665.75;107973;1275;22514;-76
2023/07/16 08:51:53;;;;;;;4.60;3.50;;;;;;;32.86;38.41;96670.40;107997;1282;22586;-76
2023/07/16 08:54:25;;;;;;;4.70;3.00;;;;;;;32.86;38.34;96670.00;107900;1275;22531;-76
2023/07/16 08:56:59;;;;;;;5.60;3.60;;;;;;;32.68;38.77;96669.34;107854;1282;23593;-76
2023/07/16 08:59:34;;;;;;;4.90;3.30;;;;;;;32.52;38.77;96673.02;107817;1282;22619;-76
2023/07/16 09:02:06;;;;;;;8.00;3.40;;;;;;;32.31;39.16;96666.71;107928;1277;22542;-76
2023/07/16 09:04:38;;;;;;;5.50;3.40;;;;;;;32.14;39.91;96671.30;107969;1275;22532;-76
2023/07/16 09:07:09;;;;;;;5.80;4.20;;;;;;;32.18;40.55;96666.54;107967;1282;22531;-76
2023/07/16 09:09:41;;;;;;;5.50;3.90;;;;;;;32.10;40.26;96665.80;107920;1282;22531;-76
2023/07/16 09:12:15;;;;;;;4.20;3.80;;;;;;;31.96;41.07;96667.23;107925;1282;22537;-76
2023/07/16 09:14:46;;;;;;;4.70;3.60;;;;;;;31.80;41.81;96667.64;107900;1282;22535;-76
2023/07/16 09:17:23;;;;;;;5.90;4.00;;;;;;;31.82;42.37;96665.73;107970;1281;22527;-76
2023/07/16 09:20:03;;;;;;;5.60;4.00;;;;;;;31.80;42.85;96661.69;108013;1282;22530;-76
2023/07/16 09:22:32;;;;;;;;;;;;;;;31.55;42.76;96664.00;108054;1278;22645;-76
2023/07/16 09:25:05;;;;;;;5.30;4.80;;;;;;;31.30;42.88;96666.47;107997;1280;22535;-76
2023/07/16 09:27:39;;;;;;;4.80;4.20;;;;;;;30.94;42.87;96673.26;108006;1282;22544;-76
2023/07/16 09:30:21;;;;;;;6.50;4.30;;;;;;;30.57;43.22;96677.80;107928;1280;22567;-76
2023/07/16 09:32:54;;;;;;;4.20;3.80;;;;;;;30.52;44.65;96674.41;107915;1276;22605;-76
2023/07/16 09:35:33;;;;;;;5.80;4.20;;;;;;;30.70;45.54;96672.92;107941;1281;25424;-76
2023/07/16 09:38:12;;;;;;;4.40;4.00;;;;;;;30.83;45.28;96674.88;107988;1282;22556;-76
2023/07/16 09:40:45;;;;;;;6.60;4.70;;;;;;;30.94;45.84;96675.60;107931;1282;22567;-76
2023/07/16 09:43:18;;;;;;;5.90;4.40;;;;;;;31.05;46.09;96679.45;107924;1282;22543;-77
2023/07/16 09:45:49;;;;;;;4.70;4.20;;;;;;;31.14;46.24;96680.29;107927;1282;22524;-77
2023/07/16 09:48:21;;;;;;;8.60;5.00;;;;;;;31.09;45.73;96680.11;107862;1282;22574;-78
2023/07/16 09:50:57;;;;;;;6.70;4.30;;;;;;;31.03;45.77;96681.61;108003;1279;22528;-79
2023/07/16 09:53:37;;;;;;;5.30;4.60;;;;;;;30.94;45.45;96679.68;107927;1282;26470;-79
2023/07/16 09:56:13;;;;;;;6.20;4.70;;;;;;;30.87;45.75;96683.77;107978;1278;25379;-78
2023/07/16 09:58:47;;;;;;;6.00;4.30;;;;;;;30.89;46.27;96684.13;108086;1282;22603;-76
2023/07/16 10:01:21;;;;;;;5.30;4.70;;;;;;;30.98;46.21;96686.21;108024;1282;22687;-76
2023/07/16 10:04:02;;;;;;;4.50;4.00;;;;;;;30.85;45.21;96688.23;108042;1282;22553;-76
2023/07/16 10:06:33;;;;;;;4.70;4.30;;;;;;;30.80;46.30;96692.73;108076;1279;22534;-77
2023/07/16 10:09:04;;;;;;;6.10;4.70;;;;;;;30.91;46.78;96694.33;107944;1276;22522;-77
2023/07/16 10:11:44;;;;;;;5.20;4.60;;;;;;;31.01;46.91;96698.92;108040;1274;22533;-77
2023/07/16 10:14:26;;;;;;;6.40;4.30;;;;;;;31.08;46.38;96697.96;108081;1282;23815;-77
2023/07/16 10:17:06;;;;;;;4.90;4.40;;;;;;;30.85;45.49;96698.16;108068;1282;22547;-77
2023/07/16 10:19:56;;;;;;;5.50;4.40;;;;;;;30.79;46.53;96694.32;108088;1281;22567;-77
2023/07/16 10:22:38;;;;;;;5.90;4.80;;;;;;;30.91;46.54;96692.61;107947;1282;24333;-77
2023/07/16 10:25:24;;;;;;;5.80;4.00;;;;;;;30.97;47.06;96693.64;108060;1280;22527;-77
2023/07/16 10:27:57;;;;;;;5.70;5.00;;;;;;;31.04;47.43;96690.89;108136;1277;22542;-76
2023/07/16 10:30:29;;;;;;;5.60;4.50;;;;;;;31.12;47.78;96698.54;108038;1282;22537;-77
2023/07/16 10:33:06;;;;;;;4.80;4.20;;;;;;;31.17;47.18;96693.40;107959;1279;22541;-77
2023/07/16 10:35:44;;;;;;;5.20;4.70;;;;;;;31.12;46.84;96693.61;107963;1280;24254;-77
2023/07/16 10:38:18;;;;;;;5.10;4.60;;;;;;;30.93;46.25;96692.44;107986;1282;25281;-77
2023/07/16 10:40:54;;;;;;;5.90;5.00;;;;;;;30.90;46.48;96687.86;107902;1278;22692;-77
2023/07/16 10:43:26;;;;;;;7.30;4.20;;;;;;;30.96;46.57;96687.71;107906;1282;22576;-76
2023/07/16 10:45:59;;;;;;;5.20;4.40;;;;;;;31.05;46.82;96682.12;107675;1277;22526;-77
2023/07/16 10:48:30;;;;;;;5.30;4.40;;;;;;;30.95;46.23;96683.49;107767;1275;22666;-77
2023/07/16 10:51:03;;;;;;;4.70;4.20;;;;;;;31.02;46.86;96685.06;107818;1276;25381;-77
2023/07/16 10:53:41;;;;;;;6.30;4.40;;;;;;;31.11;46.82;96682.60;107908;1282;25302;-77
2023/07/16 10:56:13;;;;;;;5.40;4.60;;;;;;;31.08;46.83;96683.95;107897;1279;22608;-77
2023/07/16 10:58:48;;;;;;;6.20;4.60;;;;;;;31.10;46.57;96682.28;107907;1275;22554;-77
2023/07/16 11:01:23;;;;;;;5.00;4.60;;;;;;;31.02;45.94;96679.19;107924;1276;22649;-77
2023/07/16 11:04:00;;;;;;;6.20;4.50;;;;;;;31.02;46.34;96675.90;107935;1281;25380;-77
2023/07/16 11:06:35;;;;;;;6.00;4.40;;;;;;;31.00;46.55;96677.50;107918;1277;24397;-77
2023/07/16 11:09:10;;;;;;;7.00;4.70;;;;;;;30.86;46.02;96679.77;107923;1281;22640;-77
2023/07/16 11:11:42;;;;;;;7.80;4.70;;;;;;;30.77;46.18;96674.10;107900;1281;22536;-76
2023/07/16 11:14:18;;;;;;;6.40;4.50;;;;;;;30.75;46.74;96678.65;107905;1275;25071;-77
2023/07/16 11:16:50;;;;;;;5.20;4.70;;;;;;;30.68;46.28;96676.06;107931;1282;25937;-77
2023/07/16 11:19:24;;;;;;;6.30;4.90;;;;;;;30.53;45.94;96681.84;107857;1282;25428;-77
2023/07/16 11:21:55;;;;;;;6.00;4.50;;;;;;;30.33;45.82;96678.60;107910;1281;22527;-77
2023/07/16 11:24:27;;;;;;;5.00;4.50;;;;;;;30.26;46.01;96678.82;107927;1282;22680;-75
2023/07/16 11:27:02;;;;;;;5.00;4.50;;;;;;;30.32;46.09;96673.53;107995;1282;24926;-75
2023/07/16 11:29:39;;;;;;;5.50;4.50;;;;;;;30.27;46.08;96676.63;108197;1282;22534;-74
2023/07/16 11:32:12;;;;;;;6.20;4.70;;;;;;;30.36;47.02;96674.52;107929;1270;22553;-75
2023/07/16 11:35:01;;;;;;;6.50;4.70;;;;;;;30.39;46.78;96677.42;107892;1276;22560;-75
2023/07/16 11:37:36;;;;;;;6.70;4.60;;;;;;;30.45;47.08;96676.21;107921;1280;22530;-75
2023/07/16 11:40:11;;;;;;;5.70;4.80;;;;;;;30.50;46.53;96676.79;108076;1282;25355;-74
2023/07/16 11:42:48;;;;;;;6.70;5.40;;;;;;;30.41;46.40;96674.14;107924;1282;22659;-74
2023/07/16 11:45:23;;;;;;;6.50;5.00;;;;;;;30.30;45.88;96670.65;107891;1275;22578;-74
2023/07/16 11:47:55;;;;;;;7.00;4.80;;;;;;;30.26;46.70;96673.98;107933;1282;22534;-74
2023/07/16 11:50:29;;;;;;;6.10;4.70;;;;;;;30.43;47.79;96674.67;107954;1282;22549;-74